Greenmountain, North Carolina
Current Conditions -  °F | °C
As of 5:55 PM on Thursday 20 Nov 2014 (Local Time) from K0A9 Reporting Station
Clear Clear  
Wind Chill: 38°   Ceiling: Unl
Heat Index: 41°   Visibility: 10mi
Dew Point: 23°   Wind: 5mph
Humidity: 49%   Direction: 260°W
Pressure: 30.1"   Gusts: NA
Location:  35.9956°N, 82.2879°W
Report Text: K0A9 202255Z AUTO 26004KT 10SM CLR 05/M05 A3010 RMK
Loading
Personal Weather Stations






























Interactive Weather Map New forecast layout! Learn more

10-Day Weather Forecast

Advertisements
Track Severe Weather on mobile